sensor_id;sensor_type;location;lat;lon;timestamp;P1;durP1;ratioP1;P2;durP2;ratioP2
50900;SDS011;36879;51.416;6.678;2022-08-19T00:00:17;8.52;;;6.70;;
50900;SDS011;36879;51.416;6.678;2022-08-19T00:02:44;8.45;;;6.40;;
50900;SDS011;36879;51.416;6.678;2022-08-19T00:05:11;8.23;;;6.22;;
50900;SDS011;36879;51.416;6.678;2022-08-19T00:07:38;8.95;;;6.07;;
50900;SDS011;36879;51.416;6.678;2022-08-19T00:10:04;9.30;;;6.85;;
50900;SDS011;36879;51.416;6.678;2022-08-19T00:12:31;8.27;;;6.40;;
50900;SDS011;36879;51.416;6.678;2022-08-19T00:14:57;9.38;;;6.13;;
50900;SDS011;36879;51.416;6.678;2022-08-19T00:17:23;9.75;;;7.43;;
50900;SDS011;36879;51.416;6.678;2022-08-19T00:19:49;11.70;;;6.38;;
50900;SDS011;36879;51.416;6.678;2022-08-19T00:22:15;9.77;;;7.65;;
50900;SDS011;36879;51.416;6.678;2022-08-19T00:24:43;10.60;;;6.85;;
50900;SDS011;36879;51.416;6.678;2022-08-19T00:27:10;11.38;;;7.53;;
50900;SDS011;36879;51.416;6.678;2022-08-19T00:29:37;8.77;;;7.15;;
50900;SDS011;36879;51.416;6.678;2022-08-19T00:32:03;11.85;;;8.13;;
50900;SDS011;36879;51.416;6.678;2022-08-19T00:34:30;11.02;;;7.55;;
50900;SDS011;36879;51.416;6.678;2022-08-19T00:36:56;14.25;;;9.20;;
50900;SDS011;36879;51.416;6.678;2022-08-19T00:39:22;11.60;;;8.25;;
50900;SDS011;36879;51.416;6.678;2022-08-19T00:41:49;11.10;;;8.18;;
50900;SDS011;36879;51.416;6.678;2022-08-19T00:44:21;12.60;;;8.88;;
50900;SDS011;36879;51.416;6.678;2022-08-19T00:46:48;12.65;;;8.80;;
50900;SDS011;36879;51.416;6.678;2022-08-19T00:49:16;12.50;;;8.88;;
50900;SDS011;36879;51.416;6.678;2022-08-19T00:51:45;12.70;;;9.18;;
50900;SDS011;36879;51.416;6.678;2022-08-19T00:54:11;12.20;;;8.77;;
50900;SDS011;36879;51.416;6.678;2022-08-19T00:56:38;14.82;;;10.00;;
50900;SDS011;36879;51.416;6.678;2022-08-19T00:59:05;15.00;;;10.55;;
50900;SDS011;36879;51.416;6.678;2022-08-19T01:01:37;15.25;;;9.10;;
50900;SDS011;36879;51.416;6.678;2022-08-19T01:04:03;13.00;;;9.77;;
50900;SDS011;36879;51.416;6.678;2022-08-19T01:06:30;15.02;;;10.38;;
50900;SDS011;36879;51.416;6.678;2022-08-19T01:08:57;12.77;;;9.77;;
50900;SDS011;36879;51.416;6.678;2022-08-19T01:11:23;16.40;;;11.35;;
50900;SDS011;36879;51.416;6.678;2022-08-19T01:13:50;16.63;;;9.77;;
50900;SDS011;36879;51.416;6.678;2022-08-19T01:16:17;13.68;;;10.15;;
50900;SDS011;36879;51.416;6.678;2022-08-19T01:18:44;15.95;;;10.88;;
50900;SDS011;36879;51.416;6.678;2022-08-19T01:21:22;16.42;;;12.38;;
50900;SDS011;36879;51.416;6.678;2022-08-19T01:23:50;15.25;;;10.95;;
50900;SDS011;36879;51.416;6.678;2022-08-19T01:26:18;13.77;;;10.85;;
50900;SDS011;36879;51.416;6.678;2022-08-19T01:28:45;17.45;;;12.05;;
50900;SDS011;36879;51.416;6.678;2022-08-19T01:31:16;14.27;;;11.10;;
50900;SDS011;36879;51.416;6.678;2022-08-19T01:33:43;17.63;;;11.43;;
50900;SDS011;36879;51.416;6.678;2022-08-19T01:36:11;13.23;;;10.43;;
50900;SDS011;36879;51.416;6.678;2022-08-19T01:38:39;14.45;;;10.70;;
50900;SDS011;36879;51.416;6.678;2022-08-19T01:41:06;18.42;;;13.07;;
50900;SDS011;36879;51.416;6.678;2022-08-19T01:43:33;19.25;;;12.30;;
50900;SDS011;36879;51.416;6.678;2022-08-19T01:45:59;14.80;;;11.50;;
50900;SDS011;36879;51.416;6.678;2022-08-19T01:48:25;19.38;;;13.18;;
50900;SDS011;36879;51.416;6.678;2022-08-19T01:50:54;20.88;;;12.60;;
50900;SDS011;36879;51.416;6.678;2022-08-19T01:53:20;15.93;;;12.25;;
50900;SDS011;36879;51.416;6.678;2022-08-19T01:55:46;17.20;;;12.20;;
50900;SDS011;36879;51.416;6.678;2022-08-19T01:58:18;14.95;;;10.85;;
50900;SDS011;36879;51.416;6.678;2022-08-19T02:00:46;14.00;;;10.30;;
50900;SDS011;36879;51.416;6.678;2022-08-19T02:03:12;17.10;;;10.60;;
50900;SDS011;36879;51.416;6.678;2022-08-19T02:05:39;16.17;;;11.32;;
50900;SDS011;36879;51.416;6.678;2022-08-19T02:08:05;14.25;;;10.65;;
50900;SDS011;36879;51.416;6.678;2022-08-19T02:10:32;14.13;;;10.65;;
50900;SDS011;36879;51.416;6.678;2022-08-19T02:12:58;14.75;;;10.75;;
50900;SDS011;36879;51.416;6.678;2022-08-19T02:15:24;16.48;;;10.70;;
50900;SDS011;36879;51.416;6.678;2022-08-19T02:17:50;17.77;;;12.20;;
50900;SDS011;36879;51.416;6.678;2022-08-19T02:20:17;14.35;;;10.82;;
50900;SDS011;36879;51.416;6.678;2022-08-19T02:22:43;15.10;;;11.35;;
50900;SDS011;36879;51.416;6.678;2022-08-19T02:25:10;16.00;;;11.02;;
50900;SDS011;36879;51.416;6.678;2022-08-19T02:27:37;19.60;;;12.68;;
50900;SDS011;36879;51.416;6.678;2022-08-19T02:30:04;16.55;;;12.20;;
50900;SDS011;36879;51.416;6.678;2022-08-19T02:32:30;19.42;;;14.00;;
50900;SDS011;36879;51.416;6.678;2022-08-19T02:34:57;16.10;;;12.35;;
50900;SDS011;36879;51.416;6.678;2022-08-19T02:37:23;20.10;;;13.50;;
50900;SDS011;36879;51.416;6.678;2022-08-19T02:40:08;17.70;;;13.20;;
50900;SDS011;36879;51.416;6.678;2022-08-19T02:42:34;19.48;;;14.18;;
50900;SDS011;36879;51.416;6.678;2022-08-19T02:45:00;26.27;;;14.38;;
50900;SDS011;36879;51.416;6.678;2022-08-19T02:47:26;22.33;;;14.35;;
50900;SDS011;36879;51.416;6.678;2022-08-19T02:49:52;19.80;;;13.68;;
50900;SDS011;36879;51.416;6.678;2022-08-19T02:52:18;19.33;;;13.70;;
50900;SDS011;36879;51.416;6.678;2022-08-19T02:54:45;21.77;;;13.40;;
50900;SDS011;36879;51.416;6.678;2022-08-19T02:57:11;18.05;;;13.30;;
50900;SDS011;36879;51.416;6.678;2022-08-19T02:59:37;21.63;;;14.55;;
50900;SDS011;36879;51.416;6.678;2022-08-19T03:02:03;26.45;;;16.58;;
50900;SDS011;36879;51.416;6.678;2022-08-19T03:04:29;18.90;;;14.65;;
50900;SDS011;36879;51.416;6.678;2022-08-19T03:06:55;22.83;;;15.40;;
50900;SDS011;36879;51.416;6.678;2022-08-19T03:09:21;24.67;;;15.85;;
50900;SDS011;36879;51.416;6.678;2022-08-19T03:11:48;19.45;;;14.25;;
50900;SDS011;36879;51.416;6.678;2022-08-19T03:14:15;25.10;;;14.88;;
50900;SDS011;36879;51.416;6.678;2022-08-19T03:16:47;21.42;;;15.55;;
50900;SDS011;36879;51.416;6.678;2022-08-19T03:19:13;21.45;;;15.60;;
50900;SDS011;36879;51.416;6.678;2022-08-19T03:21:39;24.83;;;18.33;;
50900;SDS011;36879;51.416;6.678;2022-08-19T03:24:06;24.65;;;15.95;;
50900;SDS011;36879;51.416;6.678;2022-08-19T03:26:33;30.08;;;19.20;;
50900;SDS011;36879;51.416;6.678;2022-08-19T03:29:03;26.77;;;18.73;;
50900;SDS011;36879;51.416;6.678;2022-08-19T03:31:29;30.38;;;19.58;;
50900;SDS011;36879;51.416;6.678;2022-08-19T03:33:56;33.38;;;20.13;;
50900;SDS011;36879;51.416;6.678;2022-08-19T03:36:23;33.78;;;20.10;;
50900;SDS011;36879;51.416;6.678;2022-08-19T03:38:51;28.02;;;19.05;;
50900;SDS011;36879;51.416;6.678;2022-08-19T03:41:20;37.00;;;20.05;;
50900;SDS011;36879;51.416;6.678;2022-08-19T03:43:46;29.30;;;20.42;;
50900;SDS011;36879;51.416;6.678;2022-08-19T03:46:15;26.58;;;17.90;;
50900;SDS011;36879;51.416;6.678;2022-08-19T03:48:42;34.42;;;21.80;;
50900;SDS011;36879;51.416;6.678;2022-08-19T03:51:15;34.72;;;21.20;;
50900;SDS011;36879;51.416;6.678;2022-08-19T03:53:41;31.08;;;21.73;;
50900;SDS011;36879;51.416;6.678;2022-08-19T03:56:08;36.97;;;22.15;;
50900;SDS011;36879;51.416;6.678;2022-08-19T03:58:35;30.92;;;20.48;;
50900;SDS011;36879;51.416;6.678;2022-08-19T04:01:02;32.50;;;21.58;;
50900;SDS011;36879;51.416;6.678;2022-08-19T04:03:32;32.90;;;21.15;;
50900;SDS011;36879;51.416;6.678;2022-08-19T04:05:59;31.45;;;21.33;;
50900;SDS011;36879;51.416;6.678;2022-08-19T04:08:25;36.97;;;22.73;;
50900;SDS011;36879;51.416;6.678;2022-08-19T04:10:51;34.40;;;23.50;;
50900;SDS011;36879;51.416;6.678;2022-08-19T04:13:18;36.60;;;22.60;;
50900;SDS011;36879;51.416;6.678;2022-08-19T04:15:44;33.28;;;22.20;;
50900;SDS011;36879;51.416;6.678;2022-08-19T04:18:12;33.22;;;22.30;;
50900;SDS011;36879;51.416;6.678;2022-08-19T04:20:45;35.28;;;21.20;;
50900;SDS011;36879;51.416;6.678;2022-08-19T04:23:12;33.88;;;20.77;;
50900;SDS011;36879;51.416;6.678;2022-08-19T04:25:40;33.92;;;22.13;;
50900;SDS011;36879;51.416;6.678;2022-08-19T04:28:07;38.97;;;22.70;;
50900;SDS011;36879;51.416;6.678;2022-08-19T04:30:48;39.83;;;24.38;;
50900;SDS011;36879;51.416;6.678;2022-08-19T04:33:15;37.38;;;25.10;;
50900;SDS011;36879;51.416;6.678;2022-08-19T04:35:43;38.55;;;24.25;;
50900;SDS011;36879;51.416;6.678;2022-08-19T04:38:09;37.95;;;25.05;;
50900;SDS011;36879;51.416;6.678;2022-08-19T04:40:45;34.85;;;23.45;;
50900;SDS011;36879;51.416;6.678;2022-08-19T04:43:31;39.55;;;26.88;;
50900;SDS011;36879;51.416;6.678;2022-08-19T04:45:57;39.45;;;26.42;;
50900;SDS011;36879;51.416;6.678;2022-08-19T04:48:23;39.10;;;25.50;;
50900;SDS011;36879;51.416;6.678;2022-08-19T04:50:53;40.92;;;26.13;;
50900;SDS011;36879;51.416;6.678;2022-08-19T04:53:29;45.63;;;27.05;;
50900;SDS011;36879;51.416;6.678;2022-08-19T04:55:56;48.95;;;29.23;;
50900;SDS011;36879;51.416;6.678;2022-08-19T04:58:26;49.47;;;29.70;;
50900;SDS011;36879;51.416;6.678;2022-08-19T05:00:52;49.95;;;31.88;;
50900;SDS011;36879;51.416;6.678;2022-08-19T05:03:19;54.15;;;30.63;;
50900;SDS011;36879;51.416;6.678;2022-08-19T05:05:46;47.92;;;29.92;;
50900;SDS011;36879;51.416;6.678;2022-08-19T05:08:14;50.65;;;31.35;;
50900;SDS011;36879;51.416;6.678;2022-08-19T05:10:44;58.88;;;35.50;;
50900;SDS011;36879;51.416;6.678;2022-08-19T05:13:11;58.15;;;36.42;;
50900;SDS011;36879;51.416;6.678;2022-08-19T05:15:37;59.53;;;36.03;;
50900;SDS011;36879;51.416;6.678;2022-08-19T05:18:04;60.63;;;36.50;;
50900;SDS011;36879;51.416;6.678;2022-08-19T05:20:48;59.45;;;36.08;;
50900;SDS011;36879;51.416;6.678;2022-08-19T05:23:33;66.13;;;38.03;;
50900;SDS011;36879;51.416;6.678;2022-08-19T05:25:59;69.82;;;37.60;;
50900;SDS011;36879;51.416;6.678;2022-08-19T05:28:25;70.30;;;39.33;;
50900;SDS011;36879;51.416;6.678;2022-08-19T05:30:52;67.70;;;38.13;;
50900;SDS011;36879;51.416;6.678;2022-08-19T05:33:20;65.85;;;37.60;;
50900;SDS011;36879;51.416;6.678;2022-08-19T05:35:46;68.18;;;39.25;;
50900;SDS011;36879;51.416;6.678;2022-08-19T05:38:14;69.40;;;38.13;;
50900;SDS011;36879;51.416;6.678;2022-08-19T05:40:40;66.53;;;38.78;;
50900;SDS011;36879;51.416;6.678;2022-08-19T05:43:07;67.43;;;40.80;;
50900;SDS011;36879;51.416;6.678;2022-08-19T05:45:37;79.50;;;43.50;;
50900;SDS011;36879;51.416;6.678;2022-08-19T05:48:04;72.13;;;42.42;;
50900;SDS011;36879;51.416;6.678;2022-08-19T05:50:30;82.68;;;45.55;;
50900;SDS011;36879;51.416;6.678;2022-08-19T05:52:56;71.95;;;43.92;;
50900;SDS011;36879;51.416;6.678;2022-08-19T05:55:22;71.97;;;41.90;;
50900;SDS011;36879;51.416;6.678;2022-08-19T05:57:48;80.43;;;45.03;;
50900;SDS011;36879;51.416;6.678;2022-08-19T06:00:15;77.22;;;47.15;;
50900;SDS011;36879;51.416;6.678;2022-08-19T06:02:41;78.65;;;44.22;;
50900;SDS011;36879;51.416;6.678;2022-08-19T06:05:07;72.95;;;42.22;;
50900;SDS011;36879;51.416;6.678;2022-08-19T06:07:34;75.72;;;45.67;;
50900;SDS011;36879;51.416;6.678;2022-08-19T06:10:00;76.72;;;44.05;;
50900;SDS011;36879;51.416;6.678;2022-08-19T06:12:30;77.93;;;43.67;;
50900;SDS011;36879;51.416;6.678;2022-08-19T06:15:00;83.35;;;45.25;;
50900;SDS011;36879;51.416;6.678;2022-08-19T06:17:26;72.03;;;43.60;;
50900;SDS011;36879;51.416;6.678;2022-08-19T06:19:52;66.38;;;41.15;;
50900;SDS011;36879;51.416;6.678;2022-08-19T06:22:18;63.30;;;40.03;;
50900;SDS011;36879;51.416;6.678;2022-08-19T06:24:44;67.00;;;42.92;;
50900;SDS011;36879;51.416;6.678;2022-08-19T06:27:10;68.68;;;41.03;;
50900;SDS011;36879;51.416;6.678;2022-08-19T06:29:36;70.97;;;44.70;;
50900;SDS011;36879;51.416;6.678;2022-08-19T06:32:02;67.82;;;42.63;;
50900;SDS011;36879;51.416;6.678;2022-08-19T06:34:29;68.78;;;38.67;;
50900;SDS011;36879;51.416;6.678;2022-08-19T06:36:56;64.90;;;41.15;;
50900;SDS011;36879;51.416;6.678;2022-08-19T06:39:27;63.50;;;39.15;;
50900;SDS011;36879;51.416;6.678;2022-08-19T06:41:55;60.53;;;36.28;;
50900;SDS011;36879;51.416;6.678;2022-08-19T06:44:23;57.92;;;36.28;;
50900;SDS011;36879;51.416;6.678;2022-08-19T06:46:50;64.85;;;39.33;;
50900;SDS011;36879;51.416;6.678;2022-08-19T06:49:16;59.55;;;37.10;;
50900;SDS011;36879;51.416;6.678;2022-08-19T06:51:43;53.95;;;35.35;;
50900;SDS011;36879;51.416;6.678;2022-08-19T06:54:10;57.78;;;36.30;;
50900;SDS011;36879;51.416;6.678;2022-08-19T06:56:36;56.88;;;36.67;;
50900;SDS011;36879;51.416;6.678;2022-08-19T06:59:04;50.65;;;33.65;;
50900;SDS011;36879;51.416;6.678;2022-08-19T07:01:34;54.13;;;33.05;;
50900;SDS011;36879;51.416;6.678;2022-08-19T07:04:00;51.58;;;29.70;;
50900;SDS011;36879;51.416;6.678;2022-08-19T07:06:27;47.90;;;31.27;;
50900;SDS011;36879;51.416;6.678;2022-08-19T07:08:55;48.67;;;29.10;;
50900;SDS011;36879;51.416;6.678;2022-08-19T07:11:23;46.13;;;28.92;;
50900;SDS011;36879;51.416;6.678;2022-08-19T07:13:49;43.50;;;27.83;;
50900;SDS011;36879;51.416;6.678;2022-08-19T07:16:16;47.97;;;28.52;;
50900;SDS011;36879;51.416;6.678;2022-08-19T07:18:44;43.28;;;26.00;;
50900;SDS011;36879;51.416;6.678;2022-08-19T07:21:12;44.70;;;28.63;;
50900;SDS011;36879;51.416;6.678;2022-08-19T07:23:39;42.83;;;26.92;;
50900;SDS011;36879;51.416;6.678;2022-08-19T07:26:09;41.50;;;25.08;;
50900;SDS011;36879;51.416;6.678;2022-08-19T07:28:36;41.85;;;24.38;;
50900;SDS011;36879;51.416;6.678;2022-08-19T07:31:06;35.03;;;23.23;;
50900;SDS011;36879;51.416;6.678;2022-08-19T07:33:32;31.65;;;21.52;;
50900;SDS011;36879;51.416;6.678;2022-08-19T07:36:01;34.45;;;20.70;;
50900;SDS011;36879;51.416;6.678;2022-08-19T07:38:27;31.38;;;18.55;;
50900;SDS011;36879;51.416;6.678;2022-08-19T07:40:53;25.48;;;15.57;;
50900;SDS011;36879;51.416;6.678;2022-08-19T07:43:19;24.55;;;16.70;;
50900;SDS011;36879;51.416;6.678;2022-08-19T07:45:50;30.17;;;17.23;;
50900;SDS011;36879;51.416;6.678;2022-08-19T07:48:17;24.90;;;15.40;;
50900;SDS011;36879;51.416;6.678;2022-08-19T07:50:43;21.42;;;14.18;;
50900;SDS011;36879;51.416;6.678;2022-08-19T07:53:09;21.58;;;14.13;;
50900;SDS011;36879;51.416;6.678;2022-08-19T07:55:36;22.20;;;14.23;;
50900;SDS011;36879;51.416;6.678;2022-08-19T07:58:02;19.42;;;12.32;;
50900;SDS011;36879;51.416;6.678;2022-08-19T08:00:29;26.63;;;14.05;;
50900;SDS011;36879;51.416;6.678;2022-08-19T08:02:56;19.23;;;12.73;;
50900;SDS011;36879;51.416;6.678;2022-08-19T08:05:22;18.00;;;12.63;;
50900;SDS011;36879;51.416;6.678;2022-08-19T08:08:07;16.88;;;11.57;;
50900;SDS011;36879;51.416;6.678;2022-08-19T08:10:51;20.02;;;11.43;;
50900;SDS011;36879;51.416;6.678;2022-08-19T08:13:17;21.92;;;14.00;;
50900;SDS011;36879;51.416;6.678;2022-08-19T08:15:44;19.02;;;12.88;;
50900;SDS011;36879;51.416;6.678;2022-08-19T08:18:11;18.35;;;11.35;;
50900;SDS011;36879;51.416;6.678;2022-08-19T08:20:37;25.55;;;12.52;;
50900;SDS011;36879;51.416;6.678;2022-08-19T08:23:04;18.27;;;10.82;;
50900;SDS011;36879;51.416;6.678;2022-08-19T08:25:50;18.85;;;11.98;;
50900;SDS011;36879;51.416;6.678;2022-08-19T08:28:16;19.45;;;13.45;;
50900;SDS011;36879;51.416;6.678;2022-08-19T08:30:43;18.92;;;12.55;;
50900;SDS011;36879;51.416;6.678;2022-08-19T08:33:10;18.80;;;12.57;;
50900;SDS011;36879;51.416;6.678;2022-08-19T08:35:36;21.45;;;13.55;;
50900;SDS011;36879;51.416;6.678;2022-08-19T08:38:03;21.10;;;13.60;;
50900;SDS011;36879;51.416;6.678;2022-08-19T08:42:57;22.27;;;15.10;;
50900;SDS011;36879;51.416;6.678;2022-08-19T08:45:27;23.58;;;15.10;;
50900;SDS011;36879;51.416;6.678;2022-08-19T08:47:54;26.85;;;15.00;;
50900;SDS011;36879;51.416;6.678;2022-08-19T08:50:23;25.23;;;15.52;;
50900;SDS011;36879;51.416;6.678;2022-08-19T08:52:54;24.75;;;16.08;;
50900;SDS011;36879;51.416;6.678;2022-08-19T08:55:23;20.50;;;13.50;;
50900;SDS011;36879;51.416;6.678;2022-08-19T09:00:22;20.33;;;13.25;;
50900;SDS011;36879;51.416;6.678;2022-08-19T09:02:50;22.42;;;13.13;;
50900;SDS011;36879;51.416;6.678;2022-08-19T09:05:17;20.38;;;13.32;;
50900;SDS011;36879;51.416;6.678;2022-08-19T09:15:32;17.20;;;10.70;;
50900;SDS011;36879;51.416;6.678;2022-08-19T09:18:03;17.92;;;10.18;;
50900;SDS011;36879;51.416;6.678;2022-08-19T09:20:29;21.17;;;12.73;;
50900;SDS011;36879;51.416;6.678;2022-08-19T09:22:56;18.00;;;10.52;;
50900;SDS011;36879;51.416;6.678;2022-08-19T09:25:23;16.75;;;9.85;;
50900;SDS011;36879;51.416;6.678;2022-08-19T09:27:50;13.93;;;9.95;;
50900;SDS011;36879;51.416;6.678;2022-08-19T09:30:22;18.10;;;12.88;;
50900;SDS011;36879;51.416;6.678;2022-08-19T09:32:49;24.30;;;11.60;;
50900;SDS011;36879;51.416;6.678;2022-08-19T09:35:18;15.38;;;10.68;;
50900;SDS011;36879;51.416;6.678;2022-08-19T09:37:44;15.55;;;10.35;;
50900;SDS011;36879;51.416;6.678;2022-08-19T09:40:10;15.50;;;11.35;;
50900;SDS011;36879;51.416;6.678;2022-08-19T09:42:36;17.95;;;11.05;;
50900;SDS011;36879;51.416;6.678;2022-08-19T09:45:03;18.88;;;11.43;;
50900;SDS011;36879;51.416;6.678;2022-08-19T09:47:29;18.17;;;9.75;;
50900;SDS011;36879;51.416;6.678;2022-08-19T09:49:55;16.13;;;10.38;;
50900;SDS011;36879;51.416;6.678;2022-08-19T09:52:22;15.85;;;10.20;;
50900;SDS011;36879;51.416;6.678;2022-08-19T09:54:51;14.35;;;8.85;;
50900;SDS011;36879;51.416;6.678;2022-08-19T09:57:17;21.20;;;9.32;;
50900;SDS011;36879;51.416;6.678;2022-08-19T09:59:43;14.35;;;9.80;;
50900;SDS011;36879;51.416;6.678;2022-08-19T10:02:09;15.70;;;11.07;;
50900;SDS011;36879;51.416;6.678;2022-08-19T10:04:36;12.73;;;7.93;;
50900;SDS011;36879;51.416;6.678;2022-08-19T10:07:25;12.93;;;9.55;;
50900;SDS011;36879;51.416;6.678;2022-08-19T10:09:51;15.27;;;9.50;;
50900;SDS011;36879;51.416;6.678;2022-08-19T10:12:18;13.10;;;9.60;;
50900;SDS011;36879;51.416;6.678;2022-08-19T10:14:44;13.13;;;9.30;;
50900;SDS011;36879;51.416;6.678;2022-08-19T10:17:11;15.90;;;9.05;;
50900;SDS011;36879;51.416;6.678;2022-08-19T10:19:37;12.15;;;8.05;;
50900;SDS011;36879;51.416;6.678;2022-08-19T10:22:04;11.00;;;6.97;;
50900;SDS011;36879;51.416;6.678;2022-08-19T10:24:30;11.07;;;7.80;;
50900;SDS011;36879;51.416;6.678;2022-08-19T10:26:57;10.88;;;7.47;;
50900;SDS011;36879;51.416;6.678;2022-08-19T10:29:23;15.18;;;9.13;;
50900;SDS011;36879;51.416;6.678;2022-08-19T10:31:49;12.23;;;8.15;;
50900;SDS011;36879;51.416;6.678;2022-08-19T10:34:15;12.88;;;7.97;;
50900;SDS011;36879;51.416;6.678;2022-08-19T10:36:42;15.10;;;8.30;;
50900;SDS011;36879;51.416;6.678;2022-08-19T10:39:09;12.18;;;8.60;;
50900;SDS011;36879;51.416;6.678;2022-08-19T10:41:37;11.10;;;7.80;;
50900;SDS011;36879;51.416;6.678;2022-08-19T10:44:04;11.85;;;8.25;;
50900;SDS011;36879;51.416;6.678;2022-08-19T10:46:31;11.73;;;6.93;;
50900;SDS011;36879;51.416;6.678;2022-08-19T10:48:58;11.18;;;6.72;;
50900;SDS011;36879;51.416;6.678;2022-08-19T10:51:25;11.32;;;7.03;;
50900;SDS011;36879;51.416;6.678;2022-08-19T10:54:09;11.30;;;7.47;;
50900;SDS011;36879;51.416;6.678;2022-08-19T10:56:36;7.93;;;5.80;;
50900;SDS011;36879;51.416;6.678;2022-08-19T10:59:27;10.98;;;7.03;;
50900;SDS011;36879;51.416;6.678;2022-08-19T11:01:58;9.32;;;6.55;;
50900;SDS011;36879;51.416;6.678;2022-08-19T11:04:25;16.00;;;8.35;;
50900;SDS011;36879;51.416;6.678;2022-08-19T11:06:52;8.82;;;5.80;;
50900;SDS011;36879;51.416;6.678;2022-08-19T11:09:19;6.88;;;4.97;;
50900;SDS011;36879;51.416;6.678;2022-08-19T11:11:46;9.05;;;6.45;;
50900;SDS011;36879;51.416;6.678;2022-08-19T11:14:13;8.80;;;6.13;;
50900;SDS011;36879;51.416;6.678;2022-08-19T11:16:40;9.98;;;6.50;;
50900;SDS011;36879;51.416;6.678;2022-08-19T11:19:07;8.77;;;5.97;;
50900;SDS011;36879;51.416;6.678;2022-08-19T11:21:35;11.10;;;5.40;;
50900;SDS011;36879;51.416;6.678;2022-08-19T11:24:02;9.23;;;5.55;;
50900;SDS011;36879;51.416;6.678;2022-08-19T11:26:30;10.88;;;4.65;;
50900;SDS011;36879;51.416;6.678;2022-08-19T11:28:56;7.50;;;5.13;;
50900;SDS011;36879;51.416;6.678;2022-08-19T11:31:25;9.10;;;5.25;;
50900;SDS011;36879;51.416;6.678;2022-08-19T11:33:55;6.22;;;4.13;;
50900;SDS011;36879;51.416;6.678;2022-08-19T11:36:25;5.78;;;4.60;;
50900;SDS011;36879;51.416;6.678;2022-08-19T11:38:51;6.07;;;4.40;;
50900;SDS011;36879;51.416;6.678;2022-08-19T11:41:19;5.78;;;4.30;;
50900;SDS011;36879;51.416;6.678;2022-08-19T11:43:47;4.65;;;3.55;;
50900;SDS011;36879;51.416;6.678;2022-08-19T11:46:15;6.82;;;4.03;;
50900;SDS011;36879;51.416;6.678;2022-08-19T11:48:41;6.75;;;3.78;;
50900;SDS011;36879;51.416;6.678;2022-08-19T11:51:10;6.20;;;4.60;;
50900;SDS011;36879;51.416;6.678;2022-08-19T11:53:37;8.23;;;4.22;;
50900;SDS011;36879;51.416;6.678;2022-08-19T11:56:04;5.97;;;3.65;;
50900;SDS011;36879;51.416;6.678;2022-08-19T11:58:30;7.38;;;4.53;;
50900;SDS011;36879;51.416;6.678;2022-08-19T12:00:57;8.38;;;4.38;;
50900;SDS011;36879;51.416;6.678;2022-08-19T12:03:23;6.25;;;3.90;;
50900;SDS011;36879;51.416;6.678;2022-08-19T12:05:49;7.70;;;3.53;;
50900;SDS011;36879;51.416;6.678;2022-08-19T12:08:16;7.15;;;3.85;;
50900;SDS011;36879;51.416;6.678;2022-08-19T12:10:42;9.48;;;3.78;;
50900;SDS011;36879;51.416;6.678;2022-08-19T12:13:10;8.27;;;4.43;;
50900;SDS011;36879;51.416;6.678;2022-08-19T12:15:40;6.28;;;3.58;;
50900;SDS011;36879;51.416;6.678;2022-08-19T12:18:07;7.20;;;4.32;;
50900;SDS011;36879;51.416;6.678;2022-08-19T12:20:34;7.22;;;3.92;;
50900;SDS011;36879;51.416;6.678;2022-08-19T12:23:00;9.38;;;4.00;;
50900;SDS011;36879;51.416;6.678;2022-08-19T12:25:27;6.43;;;4.07;;
50900;SDS011;36879;51.416;6.678;2022-08-19T12:27:53;10.27;;;4.20;;
50900;SDS011;36879;51.416;6.678;2022-08-19T12:30:19;7.15;;;3.42;;
50900;SDS011;36879;51.416;6.678;2022-08-19T12:32:46;6.25;;;3.60;;
50900;SDS011;36879;51.416;6.678;2022-08-19T12:35:12;5.85;;;3.47;;
50900;SDS011;36879;51.416;6.678;2022-08-19T12:37:38;3.97;;;2.70;;
50900;SDS011;36879;51.416;6.678;2022-08-19T12:40:07;7.47;;;2.92;;
50900;SDS011;36879;51.416;6.678;2022-08-19T12:42:33;5.97;;;2.88;;
50900;SDS011;36879;51.416;6.678;2022-08-19T12:44:59;6.45;;;2.20;;
50900;SDS011;36879;51.416;6.678;2022-08-19T12:47:26;6.30;;;3.38;;
50900;SDS011;36879;51.416;6.678;2022-08-19T12:49:52;7.40;;;3.15;;
50900;SDS011;36879;51.416;6.678;2022-08-19T12:52:19;4.32;;;2.85;;
50900;SDS011;36879;51.416;6.678;2022-08-19T12:54:46;5.57;;;2.75;;
50900;SDS011;36879;51.416;6.678;2022-08-19T12:57:12;4.10;;;3.10;;
50900;SDS011;36879;51.416;6.678;2022-08-19T12:59:38;4.47;;;2.58;;
50900;SDS011;36879;51.416;6.678;2022-08-19T13:02:06;4.13;;;2.60;;
50900;SDS011;36879;51.416;6.678;2022-08-19T13:04:33;4.65;;;3.08;;
50900;SDS011;36879;51.416;6.678;2022-08-19T13:07:01;3.30;;;2.28;;
50900;SDS011;36879;51.416;6.678;2022-08-19T13:09:27;4.57;;;2.58;;
50900;SDS011;36879;51.416;6.678;2022-08-19T13:11:53;4.30;;;3.08;;
50900;SDS011;36879;51.416;6.678;2022-08-19T13:14:21;5.93;;;2.95;;
50900;SDS011;36879;51.416;6.678;2022-08-19T13:16:47;5.45;;;2.30;;
50900;SDS011;36879;51.416;6.678;2022-08-19T13:19:13;5.63;;;2.70;;
50900;SDS011;36879;51.416;6.678;2022-08-19T13:21:40;5.07;;;2.55;;
50900;SDS011;36879;51.416;6.678;2022-08-19T13:24:06;4.03;;;2.85;;
50900;SDS011;36879;51.416;6.678;2022-08-19T13:26:32;3.72;;;2.60;;
50900;SDS011;36879;51.416;6.678;2022-08-19T13:28:58;4.75;;;2.40;;
50900;SDS011;36879;51.416;6.678;2022-08-19T13:31:42;6.45;;;3.28;;
50900;SDS011;36879;51.416;6.678;2022-08-19T13:34:29;4.47;;;2.70;;
50900;SDS011;36879;51.416;6.678;2022-08-19T13:36:56;5.63;;;2.92;;
50900;SDS011;36879;51.416;6.678;2022-08-19T13:39:22;7.07;;;2.92;;
50900;SDS011;36879;51.416;6.678;2022-08-19T13:41:48;5.95;;;3.53;;
50900;SDS011;36879;51.416;6.678;2022-08-19T13:44:15;4.82;;;2.78;;
50900;SDS011;36879;51.416;6.678;2022-08-19T13:46:45;3.45;;;2.58;;
50900;SDS011;36879;51.416;6.678;2022-08-19T13:49:12;5.60;;;2.90;;
50900;SDS011;36879;51.416;6.678;2022-08-19T13:51:39;10.05;;;3.28;;
50900;SDS011;36879;51.416;6.678;2022-08-19T13:54:06;7.90;;;3.63;;
50900;SDS011;36879;51.416;6.678;2022-08-19T13:56:33;4.00;;;2.60;;
50900;SDS011;36879;51.416;6.678;2022-08-19T13:59:00;4.05;;;3.08;;
50900;SDS011;36879;51.416;6.678;2022-08-19T14:01:26;6.70;;;3.75;;
50900;SDS011;36879;51.416;6.678;2022-08-19T14:03:52;8.82;;;3.40;;
50900;SDS011;36879;51.416;6.678;2022-08-19T14:06:19;4.68;;;2.92;;
50900;SDS011;36879;51.416;6.678;2022-08-19T14:08:46;7.65;;;3.13;;
50900;SDS011;36879;51.416;6.678;2022-08-19T14:11:12;8.50;;;3.50;;
50900;SDS011;36879;51.416;6.678;2022-08-19T14:13:38;5.25;;;3.85;;
50900;SDS011;36879;51.416;6.678;2022-08-19T14:16:08;6.72;;;3.13;;
50900;SDS011;36879;51.416;6.678;2022-08-19T14:18:34;4.32;;;3.05;;
50900;SDS011;36879;51.416;6.678;2022-08-19T14:21:00;4.07;;;2.42;;
50900;SDS011;36879;51.416;6.678;2022-08-19T14:23:28;5.82;;;2.47;;
50900;SDS011;36879;51.416;6.678;2022-08-19T14:26:02;7.32;;;2.70;;
50900;SDS011;36879;51.416;6.678;2022-08-19T14:28:28;3.35;;;2.75;;
50900;SDS011;36879;51.416;6.678;2022-08-19T14:30:55;4.47;;;2.80;;
50900;SDS011;36879;51.416;6.678;2022-08-19T14:33:21;6.05;;;2.92;;
50900;SDS011;36879;51.416;6.678;2022-08-19T14:35:47;6.43;;;3.08;;
50900;SDS011;36879;51.416;6.678;2022-08-19T14:38:17;5.93;;;3.17;;
50900;SDS011;36879;51.416;6.678;2022-08-19T14:40:43;4.10;;;2.63;;
50900;SDS011;36879;51.416;6.678;2022-08-19T14:43:09;4.25;;;2.50;;
50900;SDS011;36879;51.416;6.678;2022-08-19T14:45:36;5.65;;;2.65;;